createdAt,value
2023-05-25T00:01:37.866Z,4.15
2023-05-25T00:04:05.471Z,3.60
2023-05-25T00:06:32.842Z,4.10
2023-05-25T00:09:00.062Z,4.28
2023-05-25T00:11:27.549Z,4.45
2023-05-25T00:13:54.703Z,4.57
2023-05-25T00:16:22.006Z,5.43
2023-05-25T00:18:49.328Z,4.30
2023-05-25T00:21:16.450Z,4.40
2023-05-25T00:23:44.033Z,4.53
2023-05-25T00:26:11.380Z,4.45
2023-05-25T00:28:38.403Z,4.70
2023-05-25T00:31:05.781Z,4.53
2023-05-25T00:33:32.837Z,4.78
2023-05-25T00:36:00.267Z,4.00
2023-05-25T00:38:27.430Z,4.75
2023-05-25T00:40:57.850Z,4.57
2023-05-25T00:43:24.801Z,4.38
2023-05-25T00:45:51.976Z,4.32
2023-05-25T00:48:19.314Z,4.20
2023-05-25T00:50:46.794Z,4.57
2023-05-25T00:53:14.635Z,4.43
2023-05-25T00:55:52.085Z,4.47
2023-05-25T00:58:21.760Z,4.07
2023-05-25T01:00:49.779Z,4.78
2023-05-25T01:03:22.022Z,4.95
2023-05-25T01:05:51.622Z,4.18
2023-05-25T01:08:21.944Z,4.47
2023-05-25T01:10:50.269Z,4.90
2023-05-25T01:13:19.620Z,4.40
2023-05-25T01:15:48.495Z,4.57
2023-05-25T01:18:16.320Z,4.68
2023-05-25T01:21:13.498Z,4.65
2023-05-25T01:23:48.402Z,4.95
2023-05-25T01:26:16.954Z,4.78
2023-05-25T01:28:48.245Z,4.63
2023-05-25T01:31:16.192Z,4.88
2023-05-25T01:33:44.380Z,4.90
2023-05-25T01:36:11.688Z,5.40
2023-05-25T01:38:39.118Z,5.55
2023-05-25T01:41:06.319Z,4.97
2023-05-25T01:43:33.280Z,4.90
2023-05-25T01:46:10.056Z,5.18
2023-05-25T01:48:55.070Z,5.15
2023-05-25T01:51:52.834Z,4.90
2023-05-25T01:54:21.355Z,5.57
2023-05-25T01:56:50.495Z,5.00
2023-05-25T01:59:21.075Z,4.90
2023-05-25T02:01:52.781Z,5.53
2023-05-25T02:04:22.409Z,4.90
2023-05-25T02:06:52.286Z,6.23
2023-05-25T02:11:48.280Z,5.57
2023-05-25T02:14:16.254Z,5.38
2023-05-25T02:16:46.075Z,5.15
2023-05-25T02:19:15.102Z,5.22
2023-05-25T02:21:45.319Z,4.82
2023-05-25T02:24:13.798Z,5.60
2023-05-25T02:26:40.835Z,6.05
2023-05-25T02:29:08.843Z,5.75
2023-05-25T02:31:36.186Z,5.32
2023-05-25T02:34:03.488Z,5.30
2023-05-25T02:36:32.014Z,5.43
2023-05-25T02:38:58.911Z,6.22
2023-05-25T02:41:26.461Z,5.53
2023-05-25T02:43:54.464Z,5.80
2023-05-25T02:46:23.015Z,5.32
2023-05-25T02:48:50.626Z,5.25
2023-05-25T02:51:17.775Z,5.53
2023-05-25T02:53:45.858Z,5.03
2023-05-25T02:56:12.976Z,5.50
2023-05-25T02:58:40.101Z,5.50
2023-05-25T03:01:18.346Z,5.55
2023-05-25T03:03:53.625Z,5.00
2023-05-25T03:06:23.569Z,5.88
2023-05-25T03:08:55.534Z,5.63
2023-05-25T03:11:22.773Z,5.47
2023-05-25T03:13:51.906Z,5.55
2023-05-25T03:16:23.396Z,5.00
2023-05-25T03:18:50.789Z,5.32
2023-05-25T03:21:17.864Z,5.82
2023-05-25T03:23:45.511Z,5.70
2023-05-25T03:26:12.755Z,6.00
2023-05-25T03:28:40.941Z,6.68
2023-05-25T03:31:07.948Z,5.82
2023-05-25T03:33:35.159Z,5.20
2023-05-25T03:36:07.738Z,6.32
2023-05-25T03:38:36.576Z,6.85
2023-05-25T03:41:03.557Z,6.50
2023-05-25T03:43:31.017Z,6.25
2023-05-25T03:45:58.064Z,6.07
2023-05-25T03:48:25.132Z,5.78
2023-05-25T03:50:52.472Z,6.55
2023-05-25T03:53:19.846Z,6.22
2023-05-25T03:55:47.388Z,5.40
2023-05-25T03:58:16.126Z,6.25
2023-05-25T04:00:43.326Z,6.32
2023-05-25T04:03:11.230Z,5.68
2023-05-25T04:05:38.653Z,4.88
2023-05-25T04:08:06.984Z,5.07
2023-05-25T04:10:35.541Z,5.57
2023-05-25T04:13:02.714Z,4.72
2023-05-25T04:15:30.750Z,5.13
2023-05-25T04:18:04.667Z,4.70
2023-05-25T04:20:32.028Z,4.60
2023-05-25T04:22:59.725Z,5.07
2023-05-25T04:25:29.253Z,4.72
2023-05-25T04:27:57.440Z,4.82
2023-05-25T04:30:41.712Z,4.90
2023-05-25T04:33:39.049Z,4.57
2023-05-25T04:36:26.142Z,4.70
2023-05-25T04:38:55.022Z,5.25
2023-05-25T04:41:23.344Z,5.45
2023-05-25T04:44:08.004Z,5.30
2023-05-25T04:46:39.157Z,4.90
2023-05-25T04:49:10.228Z,5.28
2023-05-25T04:51:37.430Z,5.35
2023-05-25T04:54:06.123Z,5.53
2023-05-25T04:56:33.919Z,5.13
2023-05-25T04:59:01.270Z,4.32
2023-05-25T05:01:29.516Z,4.72
2023-05-25T05:04:01.013Z,5.70
2023-05-25T05:06:28.793Z,5.20
2023-05-25T05:08:56.394Z,5.53
2023-05-25T05:11:23.881Z,5.90
2023-05-25T05:13:53.841Z,4.63
2023-05-25T05:16:21.192Z,5.40
2023-05-25T05:18:49.009Z,5.25
2023-05-25T05:21:16.202Z,5.40
2023-05-25T05:23:44.037Z,4.68
2023-05-25T05:26:11.905Z,5.65
2023-05-25T05:28:39.090Z,5.43
2023-05-25T05:31:07.499Z,5.40
2023-05-25T05:33:35.482Z,5.05
2023-05-25T05:36:04.677Z,5.47
2023-05-25T05:38:32.101Z,5.47
2023-05-25T05:40:59.359Z,5.30
2023-05-25T05:43:27.437Z,5.53
2023-05-25T05:45:54.708Z,4.60
2023-05-25T05:48:21.889Z,5.35
2023-05-25T05:50:49.786Z,5.38
2023-05-25T05:53:17.380Z,5.60
2023-05-25T05:55:46.970Z,4.93
2023-05-25T05:58:15.286Z,5.43
2023-05-25T06:00:42.782Z,4.93
2023-05-25T06:03:09.938Z,4.82
2023-05-25T06:05:37.249Z,4.57
2023-05-25T06:08:05.855Z,5.40
2023-05-25T06:10:35.082Z,5.40
2023-05-25T06:13:02.055Z,5.57
2023-05-25T06:15:29.260Z,4.70
2023-05-25T06:17:59.967Z,5.00
2023-05-25T06:20:27.253Z,4.38
2023-05-25T06:22:55.055Z,5.00
2023-05-25T06:25:22.515Z,4.80
2023-05-25T06:27:50.330Z,4.82
2023-05-25T06:30:17.956Z,4.63
2023-05-25T06:32:45.414Z,4.43
2023-05-25T06:35:19.759Z,4.13
2023-05-25T06:37:50.060Z,4.38
2023-05-25T06:40:19.365Z,5.00
2023-05-25T06:42:46.489Z,5.00
2023-05-25T06:45:46.380Z,4.20
2023-05-25T06:48:14.575Z,3.97
2023-05-25T06:50:42.441Z,4.10
2023-05-25T06:53:11.071Z,4.30
2023-05-25T06:55:38.543Z,4.53
2023-05-25T06:58:06.031Z,4.40
2023-05-25T07:00:33.072Z,4.03
2023-05-25T07:03:00.223Z,4.00
2023-05-25T07:05:27.523Z,4.30
2023-05-25T07:07:54.548Z,3.67
2023-05-25T07:10:21.546Z,3.95
2023-05-25T07:12:48.388Z,4.00
2023-05-25T07:15:16.487Z,3.78
2023-05-25T07:17:44.393Z,4.22
2023-05-25T07:20:13.512Z,3.63
2023-05-25T07:22:40.694Z,3.50
2023-05-25T07:25:08.476Z,3.60
2023-05-25T07:27:36.131Z,3.55
2023-05-25T07:30:03.140Z,4.63
2023-05-25T07:32:30.704Z,3.72
2023-05-25T07:34:57.791Z,3.55
2023-05-25T07:37:24.769Z,3.55
2023-05-25T07:39:51.978Z,3.88
2023-05-25T07:42:21.153Z,3.63
2023-05-25T07:44:49.060Z,3.58
2023-05-25T07:47:16.179Z,3.20
2023-05-25T07:49:43.563Z,3.03
2023-05-25T07:52:11.851Z,4.07
2023-05-25T07:54:40.554Z,3.50
2023-05-25T07:57:08.096Z,3.38
2023-05-25T07:59:35.439Z,3.40
2023-05-25T08:02:02.815Z,3.70
2023-05-25T08:04:34.041Z,3.50
2023-05-25T08:07:01.766Z,3.35
2023-05-25T08:09:28.702Z,3.78
2023-05-25T08:12:07.808Z,3.00
2023-05-25T08:14:42.589Z,3.13
2023-05-25T08:17:10.567Z,3.38
2023-05-25T08:19:37.764Z,2.90
2023-05-25T08:22:05.213Z,2.92
2023-05-25T08:24:32.338Z,3.13
2023-05-25T08:26:59.463Z,3.20
2023-05-25T08:29:26.576Z,3.20
2023-05-25T08:31:53.910Z,2.95
2023-05-25T08:34:20.738Z,3.45
2023-05-25T08:36:47.865Z,3.10
2023-05-25T08:39:16.871Z,2.70
2023-05-25T08:41:45.331Z,2.97
2023-05-25T08:44:14.549Z,3.17
2023-05-25T08:46:42.167Z,2.93
2023-05-25T08:49:10.219Z,2.78
2023-05-25T08:51:39.448Z,3.17
2023-05-25T08:54:12.910Z,3.17
2023-05-25T08:56:42.445Z,3.05
2023-05-25T08:59:35.348Z,3.70
2023-05-25T09:02:16.306Z,3.28
2023-05-25T09:04:44.331Z,3.15
2023-05-25T09:07:11.617Z,4.00
2023-05-25T09:09:39.896Z,3.25
2023-05-25T09:12:08.161Z,3.50
2023-05-25T09:14:37.681Z,2.90
2023-05-25T09:17:04.974Z,3.05
2023-05-25T09:19:31.857Z,2.70
2023-05-25T09:22:14.121Z,2.90
2023-05-25T09:24:44.430Z,3.05
2023-05-25T09:27:12.747Z,2.50
2023-05-25T09:29:39.811Z,3.25
2023-05-25T09:32:07.385Z,3.25
2023-05-25T09:34:35.357Z,3.40
2023-05-25T09:37:17.121Z,3.00
2023-05-25T09:39:45.230Z,2.95
2023-05-25T09:42:12.467Z,2.78
2023-05-25T09:44:42.997Z,3.30
2023-05-25T09:47:10.408Z,3.70
2023-05-25T09:49:37.395Z,3.33
2023-05-25T09:52:04.630Z,3.47
2023-05-25T09:54:34.300Z,3.17
2023-05-25T09:57:04.465Z,3.22
2023-05-25T09:59:31.953Z,3.22
2023-05-25T10:01:59.626Z,2.83
2023-05-25T10:04:26.917Z,2.80
2023-05-25T10:06:54.174Z,3.20
2023-05-25T10:09:21.916Z,2.88
2023-05-25T10:11:51.750Z,3.15
2023-05-25T10:14:27.947Z,2.72
2023-05-25T10:16:59.470Z,2.65
2023-05-25T10:19:43.340Z,3.25
2023-05-25T10:22:14.791Z,3.25
2023-05-25T10:24:52.253Z,3.58
2023-05-25T10:27:27.578Z,6.90
2023-05-25T10:29:57.757Z,3.65
2023-05-25T10:32:25.479Z,3.60
2023-05-25T10:34:53.456Z,3.60
2023-05-25T10:37:21.232Z,3.80
2023-05-25T10:39:50.770Z,3.65
2023-05-25T10:42:19.103Z,3.65
2023-05-25T10:44:46.853Z,3.35
2023-05-25T10:47:15.437Z,2.90
2023-05-25T10:49:56.260Z,3.40
2023-05-25T10:52:29.124Z,3.38
2023-05-25T10:54:57.751Z,3.38
2023-05-25T10:57:25.832Z,3.10
2023-05-25T11:00:13.449Z,2.80
2023-05-25T11:02:55.469Z,3.30
2023-05-25T11:05:31.362Z,2.80
2023-05-25T11:08:07.858Z,3.00
2023-05-25T11:10:48.536Z,3.60
2023-05-25T11:14:00.414Z,3.40
2023-05-25T11:16:29.391Z,2.75
2023-05-25T11:18:59.711Z,3.17
2023-05-25T11:21:30.512Z,3.58
2023-05-25T11:23:58.557Z,2.70
2023-05-25T11:26:31.008Z,3.10
2023-05-25T11:28:59.138Z,3.50
2023-05-25T11:31:37.867Z,3.20
2023-05-25T11:34:10.833Z,2.90
2023-05-25T11:36:38.099Z,3.15
2023-05-25T11:39:11.652Z,3.53
2023-05-25T11:41:48.389Z,3.55
2023-05-25T11:44:15.369Z,3.22
2023-05-25T11:46:43.768Z,3.40
2023-05-25T11:49:10.844Z,3.40
2023-05-25T11:51:38.220Z,3.05
2023-05-25T11:54:05.883Z,3.42
2023-05-25T11:56:35.892Z,3.10
2023-05-25T11:59:08.087Z,3.20
2023-05-25T12:01:35.605Z,3.00
2023-05-25T12:04:09.581Z,3.63
2023-05-25T12:06:37.007Z,3.65
2023-05-25T12:09:05.784Z,3.13
2023-05-25T12:11:34.657Z,3.13
2023-05-25T12:14:04.086Z,3.63
2023-05-25T12:16:32.005Z,3.42
2023-05-25T12:18:59.188Z,3.70
2023-05-25T12:21:26.557Z,3.78
2023-05-25T12:23:54.665Z,3.65
2023-05-25T12:26:21.761Z,3.28
2023-05-25T12:29:02.120Z,3.42
2023-05-25T12:34:23.156Z,3.97
2023-05-25T12:36:51.916Z,3.80
2023-05-25T12:39:31.778Z,3.50
2023-05-25T12:42:00.188Z,3.28
2023-05-25T12:44:33.891Z,3.35
2023-05-25T12:47:11.926Z,3.38
2023-05-25T12:49:39.837Z,3.22
2023-05-25T12:52:10.252Z,3.00
2023-05-25T12:54:45.231Z,4.78
2023-05-25T12:57:16.953Z,3.13
2023-05-25T12:59:45.672Z,3.20
2023-05-25T13:02:13.960Z,3.22
2023-05-25T13:04:42.212Z,3.13
2023-05-25T13:07:10.157Z,3.15
2023-05-25T13:09:38.175Z,2.95
2023-05-25T13:12:06.412Z,3.72
2023-05-25T13:14:33.491Z,3.00
2023-05-25T13:17:02.047Z,3.58
2023-05-25T13:19:29.247Z,3.30
2023-05-25T13:21:56.765Z,3.35
2023-05-25T13:24:24.574Z,3.33
2023-05-25T13:26:52.778Z,3.72
2023-05-25T13:29:19.930Z,3.50
2023-05-25T13:31:48.332Z,2.90
2023-05-25T13:34:15.528Z,3.05
2023-05-25T13:36:42.996Z,3.40
2023-05-25T13:39:14.286Z,3.00
2023-05-25T13:41:42.013Z,3.10
2023-05-25T13:44:11.192Z,2.97
2023-05-25T13:46:39.008Z,2.70
2023-05-25T13:49:06.625Z,2.70
2023-05-25T13:51:35.833Z,2.83
2023-05-25T13:54:03.283Z,3.13
2023-05-25T13:56:30.722Z,3.38
2023-05-25T13:58:57.952Z,3.17
2023-05-25T14:01:27.604Z,3.30
2023-05-25T14:03:56.314Z,2.83
2023-05-25T14:06:25.057Z,3.65
2023-05-25T14:08:52.211Z,3.45
2023-05-25T14:11:26.798Z,3.05
2023-05-25T14:13:55.500Z,2.72
2023-05-25T14:16:23.016Z,3.20
2023-05-25T14:18:50.451Z,3.03
2023-05-25T14:21:17.821Z,2.97
2023-05-25T14:23:44.790Z,3.00
2023-05-25T14:26:12.639Z,2.67
2023-05-25T14:28:39.864Z,2.60
2023-05-25T14:31:07.065Z,2.70
2023-05-25T14:33:34.559Z,2.95
2023-05-25T14:36:01.957Z,2.70
2023-05-25T14:38:30.564Z,3.15
2023-05-25T14:40:57.717Z,2.80
2023-05-25T14:43:24.794Z,2.80
2023-05-25T14:45:51.731Z,2.63
2023-05-25T14:48:23.152Z,3.00
2023-05-25T14:50:50.156Z,3.08
2023-05-25T14:53:17.072Z,3.20
2023-05-25T14:55:44.496Z,2.38
2023-05-25T14:58:11.927Z,2.70
2023-05-25T15:00:39.681Z,2.83
2023-05-25T15:03:06.873Z,2.78
2023-05-25T15:05:33.998Z,3.10
2023-05-25T15:08:01.146Z,2.70
2023-05-25T15:10:29.694Z,2.80
2023-05-25T15:12:56.668Z,2.47
2023-05-25T15:15:23.594Z,2.75
2023-05-25T15:17:50.798Z,2.90
2023-05-25T15:20:17.946Z,2.70
2023-05-25T15:22:46.070Z,2.75
2023-05-25T15:25:18.908Z,2.70
2023-05-25T15:27:49.045Z,2.85
2023-05-25T15:30:16.280Z,3.00
2023-05-25T15:32:43.744Z,2.65
2023-05-25T15:35:10.919Z,2.80
2023-05-25T15:37:38.179Z,2.70
2023-05-25T15:40:05.663Z,2.75
2023-05-25T15:42:32.785Z,3.00
2023-05-25T15:44:59.893Z,2.88
2023-05-25T15:47:26.894Z,3.15
2023-05-25T15:49:54.015Z,2.95
2023-05-25T15:52:21.196Z,3.20
2023-05-25T15:54:48.438Z,2.83
2023-05-25T15:57:15.540Z,2.90
2023-05-25T15:59:42.684Z,2.85
2023-05-25T16:02:09.747Z,3.60
2023-05-25T16:04:37.768Z,2.97
2023-05-25T16:07:05.303Z,3.17
2023-05-25T16:09:32.330Z,3.65
2023-05-25T16:11:59.706Z,3.10
2023-05-25T16:14:26.793Z,2.78
2023-05-25T16:16:54.084Z,3.40
2023-05-25T16:19:21.181Z,3.28
2023-05-25T16:21:48.348Z,3.45
2023-05-25T16:24:15.752Z,3.00
2023-05-25T16:26:42.743Z,3.10
2023-05-25T16:29:09.779Z,3.40
2023-05-25T16:31:36.824Z,3.10
2023-05-25T16:34:03.848Z,2.95
2023-05-25T16:36:31.697Z,3.20
2023-05-25T16:38:58.521Z,3.67
2023-05-25T16:41:26.674Z,3.58
2023-05-25T16:43:53.778Z,3.45
2023-05-25T16:46:21.460Z,3.20
2023-05-25T16:48:48.818Z,3.53
2023-05-25T16:51:15.955Z,4.00
2023-05-25T16:53:43.693Z,3.60
2023-05-25T16:56:11.231Z,3.70
2023-05-25T16:58:38.420Z,3.50
2023-05-25T17:01:05.882Z,3.17
2023-05-25T17:03:34.418Z,3.60
2023-05-25T17:06:01.611Z,3.20
2023-05-25T17:08:28.982Z,3.53
2023-05-25T17:10:56.761Z,3.60
2023-05-25T17:13:23.665Z,3.60
2023-05-25T17:15:51.462Z,3.35
2023-05-25T17:18:18.665Z,3.55
2023-05-25T17:20:45.951Z,3.20
2023-05-25T17:23:13.264Z,3.50
2023-05-25T17:25:40.555Z,3.50
2023-05-25T17:28:08.185Z,3.17
2023-05-25T17:30:35.302Z,3.47
2023-05-25T17:33:02.351Z,3.65
2023-05-25T17:35:29.582Z,3.80
2023-05-25T17:37:57.120Z,3.67
2023-05-25T17:40:24.174Z,4.03
2023-05-25T17:42:51.403Z,3.58
2023-05-25T17:45:18.375Z,3.50
2023-05-25T17:47:45.720Z,3.38
2023-05-25T17:50:12.897Z,3.58
2023-05-25T17:52:39.941Z,3.67
2023-05-25T17:55:07.792Z,3.42
2023-05-25T17:57:34.850Z,3.60
2023-05-25T18:00:02.085Z,3.40
2023-05-25T18:02:39.960Z,3.63
2023-05-25T18:05:07.256Z,3.60
2023-05-25T18:07:34.395Z,3.20
2023-05-25T18:10:01.346Z,3.47
2023-05-25T18:12:28.747Z,3.47
2023-05-25T18:14:56.081Z,3.63
2023-05-25T18:17:23.121Z,3.50
2023-05-25T18:19:50.183Z,3.70
2023-05-25T18:22:17.408Z,3.28
2023-05-25T18:24:44.380Z,3.65
2023-05-25T18:27:11.482Z,3.70
2023-05-25T18:29:38.710Z,3.47
2023-05-25T18:32:06.072Z,3.55
2023-05-25T18:34:33.164Z,3.60
2023-05-25T18:37:00.377Z,3.65
2023-05-25T18:39:27.696Z,3.65
2023-05-25T18:41:55.072Z,3.50
2023-05-25T18:44:22.357Z,3.55
2023-05-25T18:46:51.979Z,3.83
2023-05-25T18:49:19.035Z,3.75
2023-05-25T18:51:46.564Z,3.30
2023-05-25T18:54:14.030Z,3.40
2023-05-25T18:56:41.430Z,3.70
2023-05-25T18:59:08.479Z,3.40
2023-05-25T19:01:35.576Z,3.22
2023-05-25T19:04:02.897Z,3.30
2023-05-25T19:06:31.340Z,3.40
2023-05-25T19:08:59.113Z,3.97
2023-05-25T19:11:26.535Z,3.65
2023-05-25T19:13:53.676Z,3.90
2023-05-25T19:16:22.417Z,3.58
2023-05-25T19:18:49.548Z,4.15
2023-05-25T19:21:16.612Z,3.97
2023-05-25T19:23:44.894Z,3.80
2023-05-25T19:26:11.965Z,3.97
2023-05-25T19:28:39.028Z,4.45
2023-05-25T19:31:06.171Z,4.25
2023-05-25T19:33:33.432Z,4.60
2023-05-25T19:36:01.422Z,4.78
2023-05-25T19:38:34.097Z,4.63
2023-05-25T19:41:04.713Z,4.63
2023-05-25T19:43:32.611Z,5.10
2023-05-25T19:45:59.785Z,5.00
2023-05-25T19:48:27.486Z,5.28
2023-05-25T19:50:54.521Z,5.15
2023-05-25T19:53:21.923Z,5.22
2023-05-25T19:55:49.293Z,5.47
2023-05-25T19:58:16.435Z,5.72
2023-05-25T20:00:43.986Z,6.00
2023-05-25T20:03:11.175Z,6.38
2023-05-25T20:05:38.829Z,6.50
2023-05-25T20:08:06.374Z,6.05
2023-05-25T20:10:38.818Z,5.90
2023-05-25T20:13:07.413Z,6.22
2023-05-25T20:15:34.898Z,6.78
2023-05-25T20:18:02.457Z,6.43
2023-05-25T20:20:29.496Z,6.65
2023-05-25T20:22:56.708Z,6.63
2023-05-25T20:25:23.845Z,6.75
2023-05-25T20:27:50.889Z,6.85
2023-05-25T20:30:18.333Z,7.00
2023-05-25T20:32:46.029Z,6.95
2023-05-25T20:35:15.373Z,6.38
2023-05-25T20:37:42.179Z,6.40
2023-05-25T20:40:09.649Z,5.93
2023-05-25T20:42:36.827Z,6.78
2023-05-25T20:45:05.006Z,6.13
2023-05-25T20:47:32.424Z,6.60
2023-05-25T20:49:59.548Z,7.15
2023-05-25T20:52:27.896Z,6.97
2023-05-25T20:54:54.980Z,6.53
2023-05-25T20:57:22.167Z,6.15
2023-05-25T20:59:49.311Z,7.47
2023-05-25T21:02:16.564Z,6.45
2023-05-25T21:04:44.071Z,7.40
2023-05-25T21:07:11.049Z,6.72
2023-05-25T21:09:38.184Z,6.28
2023-05-25T21:12:05.824Z,6.95
2023-05-25T21:14:33.713Z,6.78
2023-05-25T21:17:00.881Z,7.30
2023-05-25T21:19:28.092Z,7.25
2023-05-25T21:21:55.365Z,7.47
2023-05-25T21:24:22.361Z,7.07
2023-05-25T21:26:49.542Z,7.00
2023-05-25T21:29:16.936Z,7.25
2023-05-25T21:31:44.129Z,8.60
2023-05-25T21:34:11.278Z,8.18
2023-05-25T21:36:38.402Z,8.20
2023-05-25T21:39:06.026Z,8.05
2023-05-25T21:41:33.344Z,7.93
2023-05-25T21:44:00.511Z,8.27
2023-05-25T21:46:27.885Z,7.95
2023-05-25T21:48:54.836Z,8.02
2023-05-25T21:51:21.776Z,8.25
2023-05-25T21:53:48.722Z,8.20
2023-05-25T21:56:15.899Z,8.32
2023-05-25T21:58:42.835Z,8.00
2023-05-25T22:01:10.085Z,8.13
2023-05-25T22:03:37.438Z,8.05
2023-05-25T22:06:04.592Z,8.52
2023-05-25T22:08:31.889Z,8.43
2023-05-25T22:10:58.900Z,8.57
2023-05-25T22:13:26.438Z,8.05
2023-05-25T22:15:53.544Z,7.93
2023-05-25T22:18:20.743Z,8.15
2023-05-25T22:20:47.924Z,9.00
2023-05-25T22:23:15.226Z,8.63
2023-05-25T22:25:42.513Z,8.93
2023-05-25T22:28:10.241Z,9.57
2023-05-25T22:30:37.717Z,9.18
2023-05-25T22:33:05.543Z,9.27
2023-05-25T22:35:32.679Z,8.65
2023-05-25T22:38:01.019Z,8.80
2023-05-25T22:40:28.763Z,10.00
2023-05-25T22:42:56.233Z,9.60
2023-05-25T22:45:23.729Z,9.10
2023-05-25T22:47:51.655Z,8.77
2023-05-25T22:50:19.103Z,9.32
2023-05-25T22:52:46.536Z,8.90
2023-05-25T22:55:13.671Z,8.35
2023-05-25T22:57:40.468Z,8.60
2023-05-25T23:00:08.601Z,8.82
2023-05-25T23:02:36.271Z,9.02
2023-05-25T23:05:03.999Z,9.07
2023-05-25T23:07:31.526Z,9.30
2023-05-25T23:09:58.312Z,9.50
2023-05-25T23:12:25.278Z,9.45
2023-05-25T23:14:53.690Z,9.40
2023-05-25T23:17:21.829Z,9.10
2023-05-25T23:19:49.178Z,9.52
2023-05-25T23:22:16.076Z,9.10
2023-05-25T23:24:42.947Z,9.05
2023-05-25T23:27:10.261Z,9.38
2023-05-25T23:29:37.431Z,9.07
2023-05-25T23:32:05.189Z,9.10
2023-05-25T23:34:32.230Z,9.32
2023-05-25T23:36:59.465Z,9.15
2023-05-25T23:39:27.398Z,9.27
2023-05-25T23:41:54.566Z,10.18
2023-05-25T23:44:21.857Z,10.32
2023-05-25T23:46:48.700Z,9.07
2023-05-25T23:49:15.782Z,10.02
2023-05-25T23:51:42.606Z,9.07
2023-05-25T23:54:10.604Z,9.63
2023-05-25T23:56:37.897Z,10.32
2023-05-25T23:59:05.432Z,10.50
